sensor_id;sensor_type;location;lat;lon;timestamp;P1;durP1;ratioP1;P2;durP2;ratioP2
63189;SDS011;49286;44.460;26.114;2023-02-26T00:01:19;72.03;;;44.58;;
63189;SDS011;49286;44.460;26.114;2023-02-26T00:03:53;67.95;;;41.03;;
63189;SDS011;49286;44.460;26.114;2023-02-26T00:06:21;65.20;;;44.63;;
63189;SDS011;49286;44.460;26.114;2023-02-26T00:08:48;68.88;;;40.67;;
63189;SDS011;49286;44.460;26.114;2023-02-26T00:11:13;67.68;;;40.63;;
63189;SDS011;49286;44.460;26.114;2023-02-26T00:13:40;65.60;;;39.58;;
63189;SDS011;49286;44.460;26.114;2023-02-26T00:16:27;63.53;;;40.45;;
63189;SDS011;49286;44.460;26.114;2023-02-26T00:18:55;65.30;;;42.03;;
63189;SDS011;49286;44.460;26.114;2023-02-26T00:21:23;59.55;;;39.88;;
63189;SDS011;49286;44.460;26.114;2023-02-26T00:23:50;55.40;;;38.67;;
63189;SDS011;49286;44.460;26.114;2023-02-26T00:26:16;65.07;;;38.17;;
63189;SDS011;49286;44.460;26.114;2023-02-26T00:28:42;52.63;;;39.95;;
63189;SDS011;49286;44.460;26.114;2023-02-26T00:31:08;56.35;;;38.58;;
63189;SDS011;49286;44.460;26.114;2023-02-26T00:33:34;62.38;;;39.00;;
63189;SDS011;49286;44.460;26.114;2023-02-26T00:36:02;58.78;;;38.58;;
63189;SDS011;49286;44.460;26.114;2023-02-26T00:38:42;48.38;;;35.17;;
63189;SDS011;49286;44.460;26.114;2023-02-26T00:41:11;58.75;;;37.88;;
63189;SDS011;49286;44.460;26.114;2023-02-26T00:43:39;59.90;;;38.45;;
63189;SDS011;49286;44.460;26.114;2023-02-26T00:48:58;62.95;;;39.20;;
63189;SDS011;49286;44.460;26.114;2023-02-26T00:51:29;57.33;;;35.60;;
63189;SDS011;49286;44.460;26.114;2023-02-26T00:54:03;52.42;;;38.88;;
63189;SDS011;49286;44.460;26.114;2023-02-26T00:56:35;70.45;;;41.60;;
63189;SDS011;49286;44.460;26.114;2023-02-26T00:59:01;63.22;;;37.33;;
63189;SDS011;49286;44.460;26.114;2023-02-26T01:01:27;57.63;;;40.63;;
63189;SDS011;49286;44.460;26.114;2023-02-26T01:03:52;62.13;;;40.60;;
63189;SDS011;49286;44.460;26.114;2023-02-26T01:06:19;65.47;;;40.03;;
63189;SDS011;49286;44.460;26.114;2023-02-26T01:11:11;59.80;;;43.20;;
63189;SDS011;49286;44.460;26.114;2023-02-26T01:13:37;73.05;;;47.67;;
63189;SDS011;49286;44.460;26.114;2023-02-26T01:16:04;84.28;;;51.55;;
63189;SDS011;49286;44.460;26.114;2023-02-26T01:18:41;74.68;;;52.95;;
63189;SDS011;49286;44.460;26.114;2023-02-26T01:21:13;75.47;;;52.72;;
63189;SDS011;49286;44.460;26.114;2023-02-26T01:23:44;75.13;;;52.75;;
63189;SDS011;49286;44.460;26.114;2023-02-26T01:26:17;78.22;;;51.45;;
63189;SDS011;49286;44.460;26.114;2023-02-26T01:28:47;104.05;;;56.92;;
63189;SDS011;49286;44.460;26.114;2023-02-26T01:34:22;96.50;;;67.25;;
63189;SDS011;49286;44.460;26.114;2023-02-26T01:36:55;98.22;;;66.18;;
63189;SDS011;49286;44.460;26.114;2023-02-26T01:39:27;93.22;;;68.75;;
63189;SDS011;49286;44.460;26.114;2023-02-26T01:49:33;106.95;;;72.03;;
63189;SDS011;49286;44.460;26.114;2023-02-26T01:54:31;101.90;;;72.93;;
63189;SDS011;49286;44.460;26.114;2023-02-26T01:59:30;103.40;;;75.47;;
63189;SDS011;49286;44.460;26.114;2023-02-26T02:01:57;102.68;;;74.55;;
63189;SDS011;49286;44.460;26.114;2023-02-26T02:04:24;98.82;;;69.35;;
63189;SDS011;49286;44.460;26.114;2023-02-26T02:06:51;109.50;;;71.85;;
63189;SDS011;49286;44.460;26.114;2023-02-26T02:09:17;101.90;;;73.57;;
63189;SDS011;49286;44.460;26.114;2023-02-26T02:31:37;76.95;;;58.58;;
63189;SDS011;49286;44.460;26.114;2023-02-26T02:34:12;102.13;;;55.80;;
63189;SDS011;49286;44.460;26.114;2023-02-26T02:37:13;79.50;;;57.95;;
63189;SDS011;49286;44.460;26.114;2023-02-26T02:39:43;89.45;;;59.50;;
63189;SDS011;49286;44.460;26.114;2023-02-26T02:45:11;91.97;;;62.23;;
63189;SDS011;49286;44.460;26.114;2023-02-26T02:47:45;92.68;;;69.53;;
63189;SDS011;49286;44.460;26.114;2023-02-26T02:50:18;88.45;;;63.42;;
63189;SDS011;49286;44.460;26.114;2023-02-26T02:52:59;73.20;;;53.90;;
63189;SDS011;49286;44.460;26.114;2023-02-26T02:55:39;75.72;;;51.03;;
63189;SDS011;49286;44.460;26.114;2023-02-26T02:58:29;73.47;;;53.75;;
63189;SDS011;49286;44.460;26.114;2023-02-26T03:00:59;81.20;;;54.50;;
63189;SDS011;49286;44.460;26.114;2023-02-26T03:03:34;75.53;;;55.08;;
63189;SDS011;49286;44.460;26.114;2023-02-26T03:06:13;80.40;;;52.95;;
63189;SDS011;49286;44.460;26.114;2023-02-26T03:08:39;79.53;;;54.33;;
63189;SDS011;49286;44.460;26.114;2023-02-26T03:11:06;77.43;;;52.97;;
63189;SDS011;49286;44.460;26.114;2023-02-26T03:13:32;64.32;;;43.88;;
63189;SDS011;49286;44.460;26.114;2023-02-26T03:18:52;61.28;;;42.03;;
63189;SDS011;49286;44.460;26.114;2023-02-26T03:27:00;66.03;;;40.90;;
63189;SDS011;49286;44.460;26.114;2023-02-26T03:32:59;57.45;;;39.92;;
63189;SDS011;49286;44.460;26.114;2023-02-26T03:41:05;54.45;;;37.22;;
63189;SDS011;49286;44.460;26.114;2023-02-26T03:43:42;53.38;;;36.78;;
63189;SDS011;49286;44.460;26.114;2023-02-26T03:46:15;52.25;;;36.15;;
63189;SDS011;49286;44.460;26.114;2023-02-26T03:48:46;56.65;;;38.67;;
63189;SDS011;49286;44.460;26.114;2023-02-26T03:51:15;65.75;;;38.05;;
63189;SDS011;49286;44.460;26.114;2023-02-26T03:53:48;56.30;;;38.25;;
63189;SDS011;49286;44.460;26.114;2023-02-26T03:58:58;62.25;;;39.97;;
63189;SDS011;49286;44.460;26.114;2023-02-26T04:01:25;49.83;;;37.88;;
63189;SDS011;49286;44.460;26.114;2023-02-26T04:04:04;68.40;;;41.17;;
63189;SDS011;49286;44.460;26.114;2023-02-26T04:06:35;70.35;;;48.50;;
63189;SDS011;49286;44.460;26.114;2023-02-26T04:09:02;72.05;;;45.33;;
63189;SDS011;49286;44.460;26.114;2023-02-26T04:11:28;66.40;;;43.92;;
63189;SDS011;49286;44.460;26.114;2023-02-26T04:13:55;79.30;;;47.55;;
63189;SDS011;49286;44.460;26.114;2023-02-26T04:16:20;69.63;;;46.58;;
63189;SDS011;49286;44.460;26.114;2023-02-26T04:18:46;62.97;;;44.42;;
63189;SDS011;49286;44.460;26.114;2023-02-26T04:21:12;66.70;;;45.33;;
63189;SDS011;49286;44.460;26.114;2023-02-26T04:23:39;73.10;;;45.17;;
63189;SDS011;49286;44.460;26.114;2023-02-26T04:26:05;60.05;;;43.10;;
63189;SDS011;49286;44.460;26.114;2023-02-26T04:28:31;61.38;;;43.42;;
63189;SDS011;49286;44.460;26.114;2023-02-26T04:30:57;60.65;;;45.13;;
63189;SDS011;49286;44.460;26.114;2023-02-26T04:33:23;74.57;;;42.75;;
63189;SDS011;49286;44.460;26.114;2023-02-26T04:35:50;65.35;;;47.20;;
63189;SDS011;49286;44.460;26.114;2023-02-26T04:38:16;75.82;;;44.75;;
63189;SDS011;49286;44.460;26.114;2023-02-26T04:40:41;60.85;;;44.80;;
63189;SDS011;49286;44.460;26.114;2023-02-26T04:43:07;61.90;;;45.33;;
63189;SDS011;49286;44.460;26.114;2023-02-26T04:45:33;69.40;;;44.10;;
63189;SDS011;49286;44.460;26.114;2023-02-26T04:47:58;66.43;;;48.38;;
63189;SDS011;49286;44.460;26.114;2023-02-26T04:50:24;68.85;;;44.35;;
63189;SDS011;49286;44.460;26.114;2023-02-26T04:52:50;62.75;;;38.65;;
63189;SDS011;49286;44.460;26.114;2023-02-26T04:55:15;59.05;;;41.63;;
63189;SDS011;49286;44.460;26.114;2023-02-26T04:57:41;62.85;;;42.50;;
63189;SDS011;49286;44.460;26.114;2023-02-26T05:00:06;62.70;;;41.67;;
63189;SDS011;49286;44.460;26.114;2023-02-26T05:02:32;58.50;;;40.28;;
63189;SDS011;49286;44.460;26.114;2023-02-26T05:04:58;59.90;;;43.20;;
63189;SDS011;49286;44.460;26.114;2023-02-26T05:07:23;70.88;;;42.85;;
63189;SDS011;49286;44.460;26.114;2023-02-26T05:09:49;60.72;;;38.05;;
63189;SDS011;49286;44.460;26.114;2023-02-26T05:12:14;57.30;;;36.00;;
63189;SDS011;49286;44.460;26.114;2023-02-26T05:14:40;54.72;;;37.38;;
63189;SDS011;49286;44.460;26.114;2023-02-26T05:17:06;58.38;;;38.60;;
63189;SDS011;49286;44.460;26.114;2023-02-26T05:19:31;50.45;;;39.15;;
63189;SDS011;49286;44.460;26.114;2023-02-26T05:21:57;56.10;;;35.55;;
63189;SDS011;49286;44.460;26.114;2023-02-26T05:24:22;48.92;;;36.63;;
63189;SDS011;49286;44.460;26.114;2023-02-26T05:26:48;56.13;;;35.55;;
63189;SDS011;49286;44.460;26.114;2023-02-26T05:29:13;69.78;;;45.22;;
63189;SDS011;49286;44.460;26.114;2023-02-26T05:31:39;64.85;;;42.60;;
63189;SDS011;49286;44.460;26.114;2023-02-26T05:34:04;71.30;;;46.45;;
63189;SDS011;49286;44.460;26.114;2023-02-26T05:36:30;68.35;;;45.03;;
63189;SDS011;49286;44.460;26.114;2023-02-26T05:38:55;66.70;;;40.95;;
63189;SDS011;49286;44.460;26.114;2023-02-26T05:41:21;67.75;;;44.90;;
63189;SDS011;49286;44.460;26.114;2023-02-26T05:43:46;68.68;;;44.60;;
63189;SDS011;49286;44.460;26.114;2023-02-26T05:46:12;64.93;;;44.22;;
63189;SDS011;49286;44.460;26.114;2023-02-26T05:48:38;78.50;;;46.58;;
63189;SDS011;49286;44.460;26.114;2023-02-26T05:51:04;66.60;;;42.70;;
63189;SDS011;49286;44.460;26.114;2023-02-26T05:53:29;64.25;;;42.95;;
63189;SDS011;49286;44.460;26.114;2023-02-26T05:55:55;71.10;;;42.85;;
63189;SDS011;49286;44.460;26.114;2023-02-26T05:58:20;64.00;;;41.95;;
63189;SDS011;49286;44.460;26.114;2023-02-26T06:00:46;70.65;;;40.35;;
63189;SDS011;49286;44.460;26.114;2023-02-26T06:03:12;59.17;;;36.05;;
63189;SDS011;49286;44.460;26.114;2023-02-26T06:05:37;54.50;;;40.22;;
63189;SDS011;49286;44.460;26.114;2023-02-26T06:08:03;58.88;;;37.75;;
63189;SDS011;49286;44.460;26.114;2023-02-26T06:10:30;62.10;;;41.85;;
63189;SDS011;49286;44.460;26.114;2023-02-26T06:12:56;53.55;;;37.13;;
63189;SDS011;49286;44.460;26.114;2023-02-26T06:15:21;58.28;;;39.20;;
63189;SDS011;49286;44.460;26.114;2023-02-26T06:17:47;74.25;;;41.47;;
63189;SDS011;49286;44.460;26.114;2023-02-26T06:20:13;53.53;;;38.03;;
63189;SDS011;49286;44.460;26.114;2023-02-26T06:22:39;65.05;;;38.80;;
63189;SDS011;49286;44.460;26.114;2023-02-26T06:25:04;57.15;;;38.30;;
63189;SDS011;49286;44.460;26.114;2023-02-26T06:27:30;61.33;;;38.40;;
63189;SDS011;49286;44.460;26.114;2023-02-26T06:29:56;50.53;;;35.70;;
63189;SDS011;49286;44.460;26.114;2023-02-26T06:32:21;61.88;;;41.83;;
63189;SDS011;49286;44.460;26.114;2023-02-26T06:34:47;60.80;;;40.08;;
63189;SDS011;49286;44.460;26.114;2023-02-26T06:37:12;70.72;;;46.97;;
63189;SDS011;49286;44.460;26.114;2023-02-26T06:39:38;65.57;;;43.78;;
63189;SDS011;49286;44.460;26.114;2023-02-26T06:42:03;60.70;;;41.00;;
63189;SDS011;49286;44.460;26.114;2023-02-26T06:44:29;56.70;;;42.03;;
63189;SDS011;49286;44.460;26.114;2023-02-26T06:46:54;58.22;;;42.20;;
63189;SDS011;49286;44.460;26.114;2023-02-26T06:49:20;62.20;;;40.40;;
63189;SDS011;49286;44.460;26.114;2023-02-26T06:51:45;62.60;;;40.88;;
63189;SDS011;49286;44.460;26.114;2023-02-26T06:54:11;62.38;;;37.40;;
63189;SDS011;49286;44.460;26.114;2023-02-26T06:56:36;59.42;;;41.13;;
63189;SDS011;49286;44.460;26.114;2023-02-26T06:59:02;56.42;;;39.60;;
63189;SDS011;49286;44.460;26.114;2023-02-26T07:01:27;61.58;;;40.97;;
63189;SDS011;49286;44.460;26.114;2023-02-26T07:03:53;63.13;;;39.95;;
63189;SDS011;49286;44.460;26.114;2023-02-26T07:06:18;49.80;;;39.08;;
63189;SDS011;49286;44.460;26.114;2023-02-26T07:08:44;64.95;;;43.22;;
63189;SDS011;49286;44.460;26.114;2023-02-26T07:11:09;59.13;;;41.97;;
63189;SDS011;49286;44.460;26.114;2023-02-26T07:13:36;63.70;;;43.95;;
63189;SDS011;49286;44.460;26.114;2023-02-26T07:16:02;65.53;;;44.05;;
63189;SDS011;49286;44.460;26.114;2023-02-26T07:18:31;68.38;;;42.53;;
63189;SDS011;49286;44.460;26.114;2023-02-26T07:21:00;66.20;;;43.38;;
63189;SDS011;49286;44.460;26.114;2023-02-26T07:23:26;75.70;;;44.88;;
63189;SDS011;49286;44.460;26.114;2023-02-26T07:25:52;55.50;;;40.58;;
63189;SDS011;49286;44.460;26.114;2023-02-26T07:28:17;62.08;;;43.17;;
63189;SDS011;49286;44.460;26.114;2023-02-26T07:30:44;63.92;;;41.17;;
63189;SDS011;49286;44.460;26.114;2023-02-26T07:33:10;58.33;;;42.45;;
63189;SDS011;49286;44.460;26.114;2023-02-26T07:35:35;79.65;;;46.25;;
63189;SDS011;49286;44.460;26.114;2023-02-26T07:38:01;74.13;;;47.28;;
63189;SDS011;49286;44.460;26.114;2023-02-26T07:40:27;73.07;;;46.80;;
63189;SDS011;49286;44.460;26.114;2023-02-26T07:42:52;66.10;;;45.08;;
63189;SDS011;49286;44.460;26.114;2023-02-26T07:45:17;66.78;;;46.55;;
63189;SDS011;49286;44.460;26.114;2023-02-26T07:47:46;79.78;;;47.00;;
63189;SDS011;49286;44.460;26.114;2023-02-26T07:50:12;65.22;;;44.10;;
63189;SDS011;49286;44.460;26.114;2023-02-26T07:52:38;69.30;;;43.85;;
63189;SDS011;49286;44.460;26.114;2023-02-26T07:55:04;74.05;;;45.50;;
63189;SDS011;49286;44.460;26.114;2023-02-26T07:57:30;73.50;;;50.28;;
63189;SDS011;49286;44.460;26.114;2023-02-26T07:59:55;66.68;;;46.92;;
63189;SDS011;49286;44.460;26.114;2023-02-26T08:02:21;62.28;;;44.25;;
63189;SDS011;49286;44.460;26.114;2023-02-26T08:04:47;73.53;;;48.80;;
63189;SDS011;49286;44.460;26.114;2023-02-26T08:07:13;73.40;;;45.58;;
63189;SDS011;49286;44.460;26.114;2023-02-26T08:09:39;80.03;;;48.95;;
63189;SDS011;49286;44.460;26.114;2023-02-26T08:12:04;72.43;;;44.97;;
63189;SDS011;49286;44.460;26.114;2023-02-26T08:14:30;65.28;;;45.38;;
63189;SDS011;49286;44.460;26.114;2023-02-26T08:16:55;61.95;;;44.83;;
63189;SDS011;49286;44.460;26.114;2023-02-26T08:19:21;65.32;;;43.20;;
63189;SDS011;49286;44.460;26.114;2023-02-26T08:21:47;64.57;;;44.97;;
63189;SDS011;49286;44.460;26.114;2023-02-26T08:24:12;65.95;;;45.40;;
63189;SDS011;49286;44.460;26.114;2023-02-26T08:26:38;71.57;;;43.15;;
63189;SDS011;49286;44.460;26.114;2023-02-26T08:29:03;75.25;;;52.17;;
63189;SDS011;49286;44.460;26.114;2023-02-26T08:31:29;67.68;;;48.10;;
63189;SDS011;49286;44.460;26.114;2023-02-26T08:33:56;69.20;;;45.72;;
63189;SDS011;49286;44.460;26.114;2023-02-26T08:36:22;72.22;;;45.55;;
63189;SDS011;49286;44.460;26.114;2023-02-26T08:38:48;70.95;;;46.17;;
63189;SDS011;49286;44.460;26.114;2023-02-26T08:41:14;65.07;;;44.22;;
63189;SDS011;49286;44.460;26.114;2023-02-26T08:43:39;73.72;;;49.13;;
63189;SDS011;49286;44.460;26.114;2023-02-26T08:46:05;62.38;;;45.88;;
63189;SDS011;49286;44.460;26.114;2023-02-26T08:48:30;68.18;;;44.55;;
63189;SDS011;49286;44.460;26.114;2023-02-26T08:50:56;73.30;;;46.90;;
63189;SDS011;49286;44.460;26.114;2023-02-26T08:53:22;71.47;;;43.78;;
63189;SDS011;49286;44.460;26.114;2023-02-26T08:55:48;70.05;;;43.90;;
63189;SDS011;49286;44.460;26.114;2023-02-26T08:58:14;66.78;;;41.58;;
63189;SDS011;49286;44.460;26.114;2023-02-26T09:00:40;74.05;;;48.17;;
63189;SDS011;49286;44.460;26.114;2023-02-26T09:03:05;68.88;;;42.92;;
63189;SDS011;49286;44.460;26.114;2023-02-26T09:05:31;71.85;;;47.58;;
63189;SDS011;49286;44.460;26.114;2023-02-26T09:07:56;70.95;;;47.80;;
63189;SDS011;49286;44.460;26.114;2023-02-26T09:10:22;81.05;;;47.45;;
63189;SDS011;49286;44.460;26.114;2023-02-26T09:12:47;66.38;;;46.70;;
63189;SDS011;49286;44.460;26.114;2023-02-26T09:15:13;70.68;;;48.40;;
63189;SDS011;49286;44.460;26.114;2023-02-26T09:17:39;72.07;;;47.17;;
63189;SDS011;49286;44.460;26.114;2023-02-26T09:20:05;67.13;;;45.15;;
63189;SDS011;49286;44.460;26.114;2023-02-26T09:22:33;65.57;;;44.88;;
63189;SDS011;49286;44.460;26.114;2023-02-26T09:24:59;69.97;;;46.42;;
63189;SDS011;49286;44.460;26.114;2023-02-26T09:27:24;68.03;;;46.95;;
63189;SDS011;49286;44.460;26.114;2023-02-26T09:29:50;75.97;;;49.35;;
63189;SDS011;49286;44.460;26.114;2023-02-26T09:32:16;75.00;;;47.38;;
63189;SDS011;49286;44.460;26.114;2023-02-26T09:34:41;82.15;;;49.95;;
63189;SDS011;49286;44.460;26.114;2023-02-26T09:37:07;73.72;;;45.80;;
63189;SDS011;49286;44.460;26.114;2023-02-26T09:39:34;73.53;;;47.47;;
63189;SDS011;49286;44.460;26.114;2023-02-26T09:42:23;86.35;;;46.25;;
63189;SDS011;49286;44.460;26.114;2023-02-26T09:44:56;77.40;;;47.25;;
63189;SDS011;49286;44.460;26.114;2023-02-26T09:47:28;63.47;;;45.30;;
63189;SDS011;49286;44.460;26.114;2023-02-26T09:55:33;72.38;;;45.45;;
63189;SDS011;49286;44.460;26.114;2023-02-26T10:01:09;72.13;;;43.33;;
63189;SDS011;49286;44.460;26.114;2023-02-26T10:12:02;59.72;;;39.30;;
63189;SDS011;49286;44.460;26.114;2023-02-26T10:14:36;55.17;;;33.55;;
63189;SDS011;49286;44.460;26.114;2023-02-26T10:19:44;51.67;;;27.83;;
63189;SDS011;49286;44.460;26.114;2023-02-26T10:22:17;39.97;;;13.93;;
63189;SDS011;49286;44.460;26.114;2023-02-26T10:24:50;23.13;;;8.30;;
63189;SDS011;49286;44.460;26.114;2023-02-26T10:27:30;40.22;;;9.68;;
63189;SDS011;49286;44.460;26.114;2023-02-26T10:38:40;31.38;;;7.90;;
63189;SDS011;49286;44.460;26.114;2023-02-26T10:41:14;29.30;;;6.90;;
63189;SDS011;49286;44.460;26.114;2023-02-26T10:43:48;32.90;;;7.30;;
63189;SDS011;49286;44.460;26.114;2023-02-26T10:51:38;29.35;;;6.95;;
63189;SDS011;49286;44.460;26.114;2023-02-26T10:56:55;30.05;;;7.68;;
63189;SDS011;49286;44.460;26.114;2023-02-26T10:59:21;22.10;;;6.68;;
63189;SDS011;49286;44.460;26.114;2023-02-26T11:01:47;12.68;;;6.28;;
63189;SDS011;49286;44.460;26.114;2023-02-26T11:04:15;30.65;;;7.68;;
63189;SDS011;49286;44.460;26.114;2023-02-26T11:14:18;27.30;;;6.20;;
63189;SDS011;49286;44.460;26.114;2023-02-26T11:16:57;27.42;;;7.57;;
63189;SDS011;49286;44.460;26.114;2023-02-26T11:19:27;34.13;;;6.38;;
63189;SDS011;49286;44.460;26.114;2023-02-26T11:21:59;23.55;;;6.38;;
63189;SDS011;49286;44.460;26.114;2023-02-26T11:24:29;29.55;;;7.15;;
63189;SDS011;49286;44.460;26.114;2023-02-26T11:27:01;18.00;;;8.48;;
63189;SDS011;49286;44.460;26.114;2023-02-26T11:29:32;23.38;;;6.90;;
63189;SDS011;49286;44.460;26.114;2023-02-26T11:32:02;25.67;;;7.20;;
63189;SDS011;49286;44.460;26.114;2023-02-26T11:34:28;28.27;;;6.65;;
63189;SDS011;49286;44.460;26.114;2023-02-26T11:36:54;26.67;;;7.07;;
63189;SDS011;49286;44.460;26.114;2023-02-26T11:39:29;23.30;;;8.30;;
63189;SDS011;49286;44.460;26.114;2023-02-26T11:41:59;28.25;;;6.30;;
63189;SDS011;49286;44.460;26.114;2023-02-26T11:46:57;16.17;;;6.50;;
63189;SDS011;49286;44.460;26.114;2023-02-26T11:49:26;19.63;;;7.03;;
63189;SDS011;49286;44.460;26.114;2023-02-26T11:54:44;29.85;;;8.02;;
63189;SDS011;49286;44.460;26.114;2023-02-26T11:57:29;30.70;;;7.93;;
63189;SDS011;49286;44.460;26.114;2023-02-26T11:59:57;19.48;;;7.18;;
63189;SDS011;49286;44.460;26.114;2023-02-26T12:02:25;49.42;;;8.90;;
63189;SDS011;49286;44.460;26.114;2023-02-26T12:04:56;20.02;;;7.68;;
63189;SDS011;49286;44.460;26.114;2023-02-26T12:07:24;24.27;;;7.82;;
63189;SDS011;49286;44.460;26.114;2023-02-26T12:09:50;25.83;;;7.47;;
63189;SDS011;49286;44.460;26.114;2023-02-26T12:15:26;23.83;;;7.57;;
63189;SDS011;49286;44.460;26.114;2023-02-26T12:26:18;33.72;;;8.43;;
63189;SDS011;49286;44.460;26.114;2023-02-26T13:11:04;32.97;;;9.82;;
63189;SDS011;49286;44.460;26.114;2023-02-26T13:21:59;24.55;;;8.50;;
63189;SDS011;49286;44.460;26.114;2023-02-26T13:24:39;22.80;;;8.77;;
63189;SDS011;49286;44.460;26.114;2023-02-26T13:27:07;37.42;;;7.50;;
63189;SDS011;49286;44.460;26.114;2023-02-26T13:29:37;15.50;;;7.93;;
63189;SDS011;49286;44.460;26.114;2023-02-26T13:32:15;21.55;;;7.40;;
63189;SDS011;49286;44.460;26.114;2023-02-26T13:42:50;14.45;;;5.70;;
63189;SDS011;49286;44.460;26.114;2023-02-26T13:45:47;26.42;;;6.82;;
63189;SDS011;49286;44.460;26.114;2023-02-26T13:48:38;27.17;;;6.95;;
63189;SDS011;49286;44.460;26.114;2023-02-26T13:54:08;24.60;;;7.15;;
63189;SDS011;49286;44.460;26.114;2023-02-26T13:59:29;17.08;;;6.22;;
63189;SDS011;49286;44.460;26.114;2023-02-26T14:02:01;24.38;;;7.18;;
63189;SDS011;49286;44.460;26.114;2023-02-26T14:04:54;18.60;;;6.55;;
63189;SDS011;49286;44.460;26.114;2023-02-26T14:11:01;25.23;;;6.95;;
63189;SDS011;49286;44.460;26.114;2023-02-26T14:16:12;22.92;;;5.78;;
63189;SDS011;49286;44.460;26.114;2023-02-26T14:18:51;12.25;;;5.47;;
63189;SDS011;49286;44.460;26.114;2023-02-26T14:21:33;26.55;;;7.03;;
63189;SDS011;49286;44.460;26.114;2023-02-26T14:24:45;19.63;;;6.38;;
63189;SDS011;49286;44.460;26.114;2023-02-26T14:26:51;15.38;;;5.47;;
63189;SDS011;49286;44.460;26.114;2023-02-26T14:32:31;17.63;;;6.78;;
63189;SDS011;49286;44.460;26.114;2023-02-26T14:35:05;16.63;;;6.60;;
63189;SDS011;49286;44.460;26.114;2023-02-26T14:37:37;24.05;;;6.43;;
63189;SDS011;49286;44.460;26.114;2023-02-26T14:42:59;18.65;;;6.22;;
63189;SDS011;49286;44.460;26.114;2023-02-26T14:45:29;25.05;;;6.45;;
63189;SDS011;49286;44.460;26.114;2023-02-26T14:47:56;26.23;;;7.45;;
63189;SDS011;49286;44.460;26.114;2023-02-26T14:50:23;19.42;;;6.88;;
63189;SDS011;49286;44.460;26.114;2023-02-26T14:55:55;28.63;;;7.95;;
63189;SDS011;49286;44.460;26.114;2023-02-26T15:09:08;19.85;;;6.35;;
63189;SDS011;49286;44.460;26.114;2023-02-26T15:11:48;19.88;;;6.78;;
63189;SDS011;49286;44.460;26.114;2023-02-26T15:22:52;20.45;;;8.02;;
63189;SDS011;49286;44.460;26.114;2023-02-26T15:25:35;25.75;;;8.45;;
63189;SDS011;49286;44.460;26.114;2023-02-26T15:28:06;26.50;;;7.38;;
63189;SDS011;49286;44.460;26.114;2023-02-26T15:30:35;26.08;;;6.95;;
63189;SDS011;49286;44.460;26.114;2023-02-26T15:33:03;27.83;;;7.72;;
63189;SDS011;49286;44.460;26.114;2023-02-26T15:35:31;30.58;;;7.55;;
63189;SDS011;49286;44.460;26.114;2023-02-26T15:37:59;17.67;;;6.47;;
63189;SDS011;49286;44.460;26.114;2023-02-26T15:40:27;21.65;;;7.50;;
63189;SDS011;49286;44.460;26.114;2023-02-26T15:42:57;28.48;;;7.88;;
63189;SDS011;49286;44.460;26.114;2023-02-26T15:51:03;26.13;;;8.95;;
63189;SDS011;49286;44.460;26.114;2023-02-26T15:53:32;26.00;;;7.55;;
63189;SDS011;49286;44.460;26.114;2023-02-26T15:56:07;31.20;;;7.57;;
63189;SDS011;49286;44.460;26.114;2023-02-26T15:58:44;20.33;;;8.05;;
63189;SDS011;49286;44.460;26.114;2023-02-26T16:01:17;20.02;;;7.28;;
63189;SDS011;49286;44.460;26.114;2023-02-26T16:03:45;14.45;;;7.72;;
63189;SDS011;49286;44.460;26.114;2023-02-26T16:06:12;31.27;;;6.80;;
63189;SDS011;49286;44.460;26.114;2023-02-26T16:08:41;16.42;;;8.23;;
63189;SDS011;49286;44.460;26.114;2023-02-26T16:11:07;19.92;;;8.32;;
63189;SDS011;49286;44.460;26.114;2023-02-26T16:13:35;27.42;;;7.47;;
63189;SDS011;49286;44.460;26.114;2023-02-26T16:16:05;28.60;;;7.45;;
63189;SDS011;49286;44.460;26.114;2023-02-26T16:18:35;24.65;;;7.55;;
63189;SDS011;49286;44.460;26.114;2023-02-26T16:21:04;21.90;;;7.72;;
63189;SDS011;49286;44.460;26.114;2023-02-26T16:23:41;19.35;;;7.85;;
63189;SDS011;49286;44.460;26.114;2023-02-26T16:26:12;34.92;;;8.57;;
63189;SDS011;49286;44.460;26.114;2023-02-26T16:28:42;23.25;;;8.45;;
63189;SDS011;49286;44.460;26.114;2023-02-26T16:31:18;37.60;;;9.95;;
63189;SDS011;49286;44.460;26.114;2023-02-26T16:34:21;20.45;;;7.13;;
63189;SDS011;49286;44.460;26.114;2023-02-26T16:36:46;25.20;;;9.50;;
63189;SDS011;49286;44.460;26.114;2023-02-26T16:39:16;22.88;;;8.15;;
63189;SDS011;49286;44.460;26.114;2023-02-26T16:41:48;19.05;;;7.85;;
63189;SDS011;49286;44.460;26.114;2023-02-26T16:46:55;28.02;;;7.47;;
63189;SDS011;49286;44.460;26.114;2023-02-26T16:49:25;25.55;;;7.80;;
63189;SDS011;49286;44.460;26.114;2023-02-26T16:51:56;26.90;;;9.60;;
63189;SDS011;49286;44.460;26.114;2023-02-26T16:54:23;20.67;;;8.60;;
63189;SDS011;49286;44.460;26.114;2023-02-26T16:56:58;25.65;;;8.30;;
63189;SDS011;49286;44.460;26.114;2023-02-26T16:59:30;39.03;;;15.55;;
63189;SDS011;49286;44.460;26.114;2023-02-26T17:02:10;25.25;;;15.85;;
63189;SDS011;49286;44.460;26.114;2023-02-26T17:04:39;26.92;;;17.67;;
63189;SDS011;49286;44.460;26.114;2023-02-26T17:10:07;31.13;;;18.35;;
63189;SDS011;49286;44.460;26.114;2023-02-26T17:15:15;31.20;;;19.10;;
63189;SDS011;49286;44.460;26.114;2023-02-26T17:17:44;32.05;;;19.00;;
63189;SDS011;49286;44.460;26.114;2023-02-26T17:20:10;24.13;;;18.73;;
63189;SDS011;49286;44.460;26.114;2023-02-26T17:22:36;35.22;;;24.15;;
63189;SDS011;49286;44.460;26.114;2023-02-26T17:25:03;28.27;;;19.88;;
63189;SDS011;49286;44.460;26.114;2023-02-26T17:27:33;45.63;;;21.67;;
63189;SDS011;49286;44.460;26.114;2023-02-26T17:30:01;31.25;;;20.40;;
63189;SDS011;49286;44.460;26.114;2023-02-26T17:32:28;32.38;;;21.10;;
63189;SDS011;49286;44.460;26.114;2023-02-26T17:34:55;30.50;;;19.42;;
63189;SDS011;49286;44.460;26.114;2023-02-26T17:37:21;36.90;;;21.92;;
63189;SDS011;49286;44.460;26.114;2023-02-26T17:39:48;31.20;;;19.75;;
63189;SDS011;49286;44.460;26.114;2023-02-26T17:42:16;33.38;;;23.15;;
63189;SDS011;49286;44.460;26.114;2023-02-26T17:44:47;32.38;;;19.95;;
63189;SDS011;49286;44.460;26.114;2023-02-26T17:47:14;46.33;;;23.35;;
63189;SDS011;49286;44.460;26.114;2023-02-26T17:49:41;42.33;;;24.83;;
63189;SDS011;49286;44.460;26.114;2023-02-26T17:52:07;38.30;;;26.25;;
63189;SDS011;49286;44.460;26.114;2023-02-26T17:54:32;40.45;;;24.27;;
63189;SDS011;49286;44.460;26.114;2023-02-26T17:56:58;41.45;;;28.50;;
63189;SDS011;49286;44.460;26.114;2023-02-26T17:59:24;51.80;;;32.13;;
63189;SDS011;49286;44.460;26.114;2023-02-26T18:01:49;49.28;;;31.45;;
63189;SDS011;49286;44.460;26.114;2023-02-26T18:04:15;39.92;;;31.45;;
63189;SDS011;49286;44.460;26.114;2023-02-26T18:06:41;51.47;;;30.17;;
63189;SDS011;49286;44.460;26.114;2023-02-26T18:09:09;45.50;;;30.38;;
63189;SDS011;49286;44.460;26.114;2023-02-26T18:11:35;47.67;;;29.30;;
63189;SDS011;49286;44.460;26.114;2023-02-26T18:14:02;41.40;;;30.00;;
63189;SDS011;49286;44.460;26.114;2023-02-26T18:16:29;39.85;;;26.30;;
63189;SDS011;49286;44.460;26.114;2023-02-26T18:19:13;54.53;;;26.70;;